Time;durP1;ratioP1;P1;durP2;ratioP2;P2;SDS_P1;SDS_P2;PMS_P1;PMS_P2;Temp;Humidity;BMP_temperature;BMP_pressure;BME280_temperature;BME280_humidity;BME280_pressure;Samples;Min_cycle;Max_cycle;Signal;HPM_P1;HPM_P2
2021/11/14 00:01:15;;;;;;;49.20;22.40;;;;;;;1.19;86.70;100743.30;1744163;81;21501;-58
2021/11/14 00:03:42;;;;;;;53.33;22.85;;;;;;;1.13;88.05;100740.20;1732525;80;22130;-59
2021/11/14 00:06:09;;;;;;;44.10;22.20;;;;;;;1.07;89.48;100744.02;1734823;81;21481;-58
2021/11/14 00:08:36;;;;;;;36.25;21.10;;;;;;;1.02;89.89;100743.08;1729303;81;20946;-58
2021/11/14 00:11:09;;;;;;;51.92;22.27;;;;;;;1.06;91.36;100741.00;1742404;80;21649;-58
2021/11/14 00:13:39;;;;;;;44.60;23.52;;;;;;;1.15;91.63;100743.28;1736070;81;21462;-59
2021/11/14 00:16:10;;;;;;;60.45;23.95;;;;;;;1.12;90.75;100742.37;1738197;81;22109;-58
2021/11/14 00:18:40;;;;;;;63.23;23.40;;;;;;;1.09;90.67;100741.91;1734771;80;21596;-59
2021/11/14 00:21:07;;;;;;;46.55;25.10;;;;;;;1.08;89.96;100745.77;1728722;81;20979;-58
2021/11/14 00:23:34;;;;;;;28.07;20.65;;;;;;;1.09;89.00;100738.43;1737702;81;21564;-58
2021/11/14 00:26:00;;;;;;;44.98;21.82;;;;;;;1.19;88.01;100740.31;1732797;81;21423;-58
2021/11/14 00:28:27;;;;;;;53.73;23.90;;;;;;;1.38;87.44;100743.14;1726174;81;21735;-58
2021/11/14 00:31:01;;;;;;;44.50;23.98;;;;;;;1.40;86.77;100742.30;1736201;81;21486;-58
2021/11/14 00:33:28;;;;;;;55.85;23.83;;;;;;;1.40;86.26;100746.62;1731674;81;21443;-58
2021/11/14 00:35:55;;;;;;;61.70;24.95;;;;;;;1.40;85.99;100745.32;1732977;81;21482;-58
2021/11/14 00:38:23;;;;;;;37.27;24.50;;;;;;;1.36;85.39;100744.41;1729397;81;21471;-58
2021/11/14 00:40:49;;;;;;;37.73;24.65;;;;;;;1.40;84.42;100738.41;1735307;81;25638;-58
2021/11/14 00:43:16;;;;;;;35.53;23.10;;;;;;;1.55;83.69;100741.61;1740786;80;21516;-58
2021/11/14 00:45:46;;;;;;;34.13;23.23;;;;;;;1.57;82.83;100732.56;1732690;81;21591;-58
2021/11/14 00:48:15;;;;;;;37.70;23.65;;;;;;;1.57;82.83;100732.56;1738410;81;21556;-59
2021/11/14 00:50:45;;;;;;;44.60;24.52;;;;;;;1.55;82.41;100733.83;1721574;81;21193;-58
2021/11/14 00:53:14;;;;;;;44.55;22.87;;;;;;;1.53;82.33;100729.92;1735143;81;22127;-58
2021/11/14 00:55:41;;;;;;;39.67;24.18;;;;;;;1.62;82.01;100730.86;1733604;80;21557;-58
2021/11/14 00:58:08;;;;;;;42.65;25.48;;;;;;;1.79;81.55;100728.05;1746270;81;21787;-58
2021/11/14 01:00:36;;;;;;;35.78;24.52;;;;;;;1.77;81.22;100726.27;1724081;81;21581;-58
2021/11/14 01:03:05;;;;;;;37.35;24.18;;;;;;;1.74;81.16;100728.42;1740250;81;21513;-58
2021/11/14 01:05:33;;;;;;;34.73;24.30;;;;;;;1.73;81.16;100727.96;1739223;81;21770;-56
2021/11/14 01:08:01;;;;;;;36.68;23.05;;;;;;;1.71;80.91;100730.97;1734820;81;20962;-57
2021/11/14 01:10:31;;;;;;;35.52;24.07;;;;;;;1.77;80.82;100734.05;1742692;81;21541;-57
2021/11/14 01:12:59;;;;;;;34.63;23.77;;;;;;;1.92;80.45;100733.80;1735406;81;21600;-57
2021/11/14 01:15:26;;;;;;;36.38;24.40;;;;;;;1.94;80.33;100735.09;1733339;81;21038;-58
2021/11/14 01:17:53;;;;;;;36.88;24.52;;;;;;;1.91;80.24;100730.75;1741191;81;21541;-58
2021/11/14 01:20:24;;;;;;;35.83;24.55;;;;;;;1.89;80.41;100721.23;1734600;81;21420;-58
2021/11/14 01:22:51;;;;;;;34.25;23.50;;;;;;;1.90;80.46;100719.06;1741497;81;21611;-57
2021/11/14 01:25:18;;;;;;;37.15;23.52;;;;;;;1.88;80.25;100722.92;1734739;81;21422;-57
2021/11/14 01:27:45;;;;;;;35.60;24.60;;;;;;;1.93;80.20;100718.66;1733272;81;21490;-57
2021/11/14 01:30:19;;;;;;;35.73;24.52;;;;;;;2.12;79.81;100722.73;1737053;81;21459;-58
2021/11/14 01:32:46;;;;;;;36.33;24.15;;;;;;;2.15;79.68;100722.77;1736542;81;21485;-58
2021/11/14 01:35:13;;;;;;;36.90;24.12;;;;;;;2.16;79.71;100724.92;1728796;81;21440;-57
2021/11/14 01:37:42;;;;;;;40.57;25.87;;;;;;;2.13;79.57;100716.27;1743292;81;21564;-57
2021/11/14 01:40:12;;;;;;;36.03;24.77;;;;;;;2.12;79.65;100718.41;1739046;81;21564;-58
2021/11/14 01:42:39;;;;;;;28.83;21.65;;;;;;;2.10;79.46;100721.41;1734303;81;21754;-57
2021/11/14 01:45:07;;;;;;;32.25;23.35;;;;;;;2.18;79.40;100719.32;1744731;80;21561;-57
2021/11/14 01:47:33;;;;;;;32.78;22.17;;;;;;;2.32;78.90;100721.17;1735700;81;25510;-57
2021/11/14 01:50:00;;;;;;;29.67;21.77;;;;;;;2.33;78.79;100719.00;1735713;81;21629;-57
2021/11/14 01:52:29;;;;;;;33.88;23.47;;;;;;;2.28;78.76;100722.42;1738287;81;21519;-57
2021/11/14 01:54:55;;;;;;;34.83;23.10;;;;;;;2.25;78.78;100718.09;1727331;81;22103;-57
2021/11/14 01:57:22;;;;;;;36.17;24.23;;;;;;;2.23;78.68;100718.50;1735113;80;21736;-57
2021/11/14 01:59:51;;;;;;;33.00;22.20;;;;;;;2.21;78.61;100716.77;1723123;80;21467;-58
2021/11/14 02:02:17;;;;;;;33.53;22.58;;;;;;;2.24;78.69;100717.66;1725943;82;21428;-57
2021/11/14 02:04:45;;;;;;;31.90;23.30;;;;;;;2.29;78.37;100702.97;1726169;81;21519;-57
2021/11/14 02:07:15;;;;;;;30.00;23.05;;;;;;;2.38;78.34;100718.20;1724716;81;21757;-56
2021/11/14 02:09:42;;;;;;;30.30;21.87;;;;;;;2.34;78.36;100713.41;1729033;82;21609;-57
2021/11/14 02:12:09;;;;;;;31.00;22.42;;;;;;;2.32;78.19;100719.88;1725003;82;21442;-57
2021/11/14 02:14:36;;;;;;;32.17;22.48;;;;;;;2.27;77.94;100714.21;1715893;82;21550;-57
2021/11/14 02:17:04;;;;;;;32.28;22.82;;;;;;;2.21;77.99;100723.25;1724375;82;21609;-57
2021/11/14 02:19:31;;;;;;;32.85;21.25;;;;;;;2.22;77.86;100721.94;1721846;82;21753;-58
2021/11/14 02:21:58;;;;;;;35.85;23.83;;;;;;;2.30;77.71;100720.30;1727211;81;21480;-57
2021/11/14 02:24:25;;;;;;;32.25;22.60;;;;;;;2.27;77.82;100719.40;1730910;81;21546;-64
2021/11/14 02:26:51;;;;;;;32.13;22.63;;;;;;;2.20;77.89;100722.80;1709268;82;21541;-57
2021/11/14 02:29:18;;;;;;;31.50;23.07;;;;;;;2.13;78.12;100721.89;1718180;82;21459;-57
2021/11/14 02:31:45;;;;;;;37.15;24.92;;;;;;;2.09;78.10;100718.80;1719984;81;21874;-58
2021/11/14 02:34:12;;;;;;;31.42;22.77;;;;;;;2.04;78.16;100723.10;1731307;81;21420;-57
2021/11/14 02:36:38;;;;;;;32.70;23.30;;;;;;;2.05;78.12;100718.34;1720151;82;20931;-57
2021/11/14 02:39:06;;;;;;;36.17;22.77;;;;;;;2.17;77.90;100726.65;1722060;81;21569;-58
2021/11/14 02:41:32;;;;;;;33.02;23.62;;;;;;;2.14;77.94;100728.80;1727666;82;21456;-58
2021/11/14 02:43:59;;;;;;;40.65;23.87;;;;;;;2.04;78.06;100729.15;1707421;82;22164;-58
2021/11/14 02:46:26;;;;;;;43.02;25.97;;;;;;;1.97;78.18;100732.53;1717875;82;20998;-57
2021/11/14 02:48:53;;;;;;;50.30;25.27;;;;;;;1.88;78.36;100731.14;1727516;82;21493;-59
2021/11/14 02:51:25;;;;;;;32.42;23.15;;;;;;;1.80;78.65;100734.95;1730990;81;21443;-58
2021/11/14 02:53:53;;;;;;;34.45;23.05;;;;;;;1.77;78.89;100731.46;1723211;81;21493;-57
2021/11/14 02:56:20;;;;;;;35.92;22.80;;;;;;;1.84;78.90;100730.24;1720707;81;21516;-57
2021/11/14 02:58:47;;;;;;;35.55;22.27;;;;;;;1.80;78.74;100735.39;1717185;82;21625;-58
2021/11/14 03:01:19;;;;;;;29.87;20.85;;;;;;;1.71;79.01;100728.37;1714865;82;21574;-57
2021/11/14 03:03:47;;;;;;;35.92;20.20;;;;;;;1.59;79.01;100731.71;1720308;81;21105;-58
2021/11/14 03:06:14;;;;;;;29.85;21.17;;;;;;;1.50;79.15;100728.58;1715293;81;21034;-58
2021/11/14 03:08:41;;;;;;;28.55;19.98;;;;;;;1.47;79.00;100725.97;1708397;82;21832;-57
2021/11/14 03:11:07;;;;;;;35.43;18.92;;;;;;;1.46;79.22;100728.54;1721439;81;21525;-57
2021/11/14 03:13:34;;;;;;;29.60;19.12;;;;;;;1.51;79.45;100727.74;1717811;81;21545;-57
2021/11/14 03:16:04;;;;;;;34.48;19.20;;;;;;;1.47;79.36;100725.97;1721686;82;21507;-58
2021/11/14 03:18:32;;;;;;;39.30;19.80;;;;;;;1.45;79.52;100730.27;1722099;82;21546;-57
2021/11/14 03:20:59;;;;;;;52.93;20.43;;;;;;;1.40;79.97;100730.63;1723646;81;21811;-59
2021/11/14 03:23:27;;;;;;;38.88;19.05;;;;;;;1.30;80.11;100734.84;1729880;82;21459;-58
2021/11/14 03:25:54;;;;;;;23.65;17.73;;;;;;;1.22;80.41;100729.97;1719459;82;21554;-57
2021/11/14 03:28:21;;;;;;;25.90;18.57;;;;;;;1.24;80.17;100727.40;1725909;81;21553;-57
2021/11/14 03:30:51;;;;;;;32.20;19.48;;;;;;;1.34;80.36;100732.72;1713480;81;22518;-57
2021/11/14 03:33:18;;;;;;;27.93;18.92;;;;;;;1.35;81.07;100727.11;1727050;81;22095;-58
2021/11/14 03:36:08;;;;;;;47.30;19.85;;;;;;;1.32;80.64;100726.66;1711263;82;21490;-58
2021/11/14 03:38:40;;;;;;;36.93;19.50;;;;;;;1.29;82.21;100724.45;1723739;81;21530;-58
2021/11/14 03:41:09;;;;;;;36.70;18.65;;;;;;;1.22;81.56;100719.60;1710437;82;21595;-57
2021/11/14 03:43:38;;;;;;;30.02;19.57;;;;;;;1.19;82.22;100719.98;1725383;81;21002;-58
2021/11/14 03:46:05;;;;;;;23.92;18.92;;;;;;;1.22;81.64;100720.03;1725706;81;21673;-57
2021/11/14 03:48:33;;;;;;;35.75;20.00;;;;;;;1.34;82.71;100715.88;1715762;81;20982;-58
2021/11/14 03:51:00;;;;;;;45.00;19.45;;;;;;;1.34;83.34;100715.02;1724404;81;20954;-58
2021/11/14 03:53:27;;;;;;;36.70;19.70;;;;;;;1.28;83.37;100711.93;1717682;81;20955;-58
2021/11/14 03:55:54;;;;;;;45.75;20.15;;;;;;;1.21;84.15;100709.25;1721986;81;21503;-57
2021/11/14 03:58:21;;;;;;;44.20;19.90;;;;;;;1.15;86.79;100712.20;1728384;80;21482;-57
2021/11/14 04:00:55;;;;;;;36.63;19.23;;;;;;;1.12;87.24;100716.47;1739782;81;21462;-58
2021/11/14 04:03:22;;;;;;;30.95;19.30;;;;;;;1.18;87.42;100715.23;1728169;81;21608;-57
2021/11/14 04:05:50;;;;;;;51.50;20.65;;;;;;;1.25;86.24;100720.09;1727431;81;21542;-58
2021/11/14 04:08:20;;;;;;;;;;;;;;;1.20;86.86;100724.33;1742963;81;21529;-57
2021/11/14 04:10:48;;;;;;;37.05;18.60;;;;;;;1.14;86.31;100719.94;1739730;80;21790;-57
2021/11/14 04:13:15;;;;;;;33.90;18.15;;;;;;;1.06;86.79;100722.88;1736244;81;21454;-57
2021/11/14 04:15:42;;;;;;;24.67;17.77;;;;;;;1.04;87.46;100726.73;1736973;80;21502;-57
2021/11/14 04:18:09;;;;;;;29.35;19.75;;;;;;;1.16;88.15;100729.89;1737914;81;21071;-57
2021/11/14 04:20:38;;;;;;;51.30;20.00;;;;;;;1.20;86.67;100734.70;1742326;81;21454;-58
2021/11/14 04:23:05;;;;;;;32.85;19.87;;;;;;;1.16;87.59;100730.76;1741661;81;22272;-57
2021/11/14 04:25:32;;;;;;;;;;;;;;;1.13;87.36;100736.32;1731509;81;21503;-57
2021/11/14 04:27:59;;;;;;;30.48;18.17;;;;;;;1.11;87.35;100732.84;1741864;81;20442;-58
2021/11/14 04:30:27;;;;;;;24.80;17.92;;;;;;;1.06;87.50;100730.64;1738609;81;21624;-57
2021/11/14 04:32:54;;;;;;;33.25;18.45;;;;;;;1.16;87.67;100732.05;1725721;81;21545;-57
2021/11/14 04:35:21;;;;;;;46.40;20.32;;;;;;;1.29;87.08;100730.92;1735199;81;21497;-57
2021/11/14 04:37:51;;;;;;;38.88;19.12;;;;;;;1.26;87.72;100735.66;1735083;81;21546;-57
2021/11/14 04:40:20;;;;;;;61.05;20.00;;;;;;;1.25;87.67;100730.45;1740291;81;21570;-57
2021/11/14 04:42:47;;;;;;;55.25;19.48;;;;;;;1.21;88.87;100725.66;1725652;80;21530;-57
2021/11/14 04:45:14;;;;;;;40.05;18.92;;;;;;;1.19;88.39;100725.17;1732445;81;21593;-57
2021/11/14 04:47:40;;;;;;;47.20;19.63;;;;;;;1.26;87.99;100720.11;1736522;81;21796;-57
2021/11/14 04:50:10;;;;;;;36.70;19.37;;;;;;;1.42;88.68;100722.45;1731161;81;21604;-59
2021/11/14 04:52:37;;;;;;;65.83;20.05;;;;;;;1.45;88.15;100720.30;1730748;80;21403;-57
2021/11/14 04:55:05;;;;;;;57.83;20.00;;;;;;;1.38;89.02;100730.19;1738843;81;21540;-57
2021/11/14 04:57:33;;;;;;;42.13;19.45;;;;;;;1.38;89.02;100730.19;1743313;81;21915;-57
2021/11/14 05:00:00;;;;;;;27.27;17.92;;;;;;;1.34;90.24;100733.16;1742984;81;21754;-57
2021/11/14 05:02:26;;;;;;;35.43;18.25;;;;;;;1.39;90.82;100734.49;1737057;81;21490;-57
2021/11/14 05:04:53;;;;;;;50.65;20.80;;;;;;;1.50;90.72;100732.91;1733440;81;21506;-57
2021/11/14 05:07:21;;;;;;;42.93;20.55;;;;;;;1.48;91.20;100732.88;1739760;81;21530;-57
2021/11/14 05:09:49;;;;;;;60.92;20.35;;;;;;;1.40;91.92;100730.63;1735948;81;21427;-57
2021/11/14 05:12:16;;;;;;;34.27;20.10;;;;;;;1.40;92.60;100731.93;1739696;80;21526;-57
2021/11/14 05:14:44;;;;;;;32.33;20.77;;;;;;;1.44;92.23;100734.13;1739751;81;21560;-58
2021/11/14 05:17:11;;;;;;;41.23;20.90;;;;;;;1.58;92.07;100741.63;1737633;80;21445;-57
2021/11/14 05:19:39;;;;;;;47.33;20.85;;;;;;;1.60;92.71;100735.17;1736600;81;21435;-57
2021/11/14 05:22:06;;;;;;;52.45;20.35;;;;;;;1.55;93.48;100739.02;1736554;81;21561;-58
2021/11/14 05:24:32;;;;;;;36.33;19.95;;;;;;;1.51;94.35;100742.00;1737170;81;21629;-58
2021/11/14 05:26:59;;;;;;;48.90;21.07;;;;;;;1.52;94.35;100736.38;1733484;81;20946;-58
2021/11/14 05:29:26;;;;;;;50.15;21.30;;;;;;;1.66;94.32;100741.73;1733641;81;21489;-58
2021/11/14 05:31:53;;;;;;;50.35;21.45;;;;;;;1.68;94.47;100741.33;1743952;81;21976;-60
2021/11/14 05:34:19;;;;;;;46.50;20.57;;;;;;;1.64;94.45;100742.12;1738002;81;21427;-57
2021/11/14 05:36:47;;;;;;;46.70;20.10;;;;;;;1.60;94.42;100741.64;1731149;81;21793;-57
2021/11/14 05:39:14;;;;;;;33.50;18.98;;;;;;;1.59;94.97;100744.67;1733535;81;21447;-57
2021/11/14 05:41:40;;;;;;;45.58;20.40;;;;;;;1.68;95.61;100747.38;1745073;81;21587;-57
2021/11/14 05:44:08;;;;;;;50.85;20.57;;;;;;;1.74;95.79;100750.46;1739879;81;21546;-57
2021/11/14 05:46:35;;;;;;;53.45;21.35;;;;;;;1.68;96.80;100755.16;1726093;81;21716;-57
2021/11/14 05:49:06;;;;;;;43.20;18.57;;;;;;;1.56;96.64;100757.59;1738902;81;21802;-57
2021/11/14 05:51:30;;;;;;;38.23;20.08;;;;;;;1.56;96.64;100757.59;1739701;81;20950;-56
2021/11/14 05:53:56;;;;;;;30.32;20.88;;;;;;;1.62;97.52;100765.86;1735047;81;21585;-57
2021/11/14 05:56:23;;;;;;;43.68;20.40;;;;;;;1.75;95.56;100763.85;1733784;81;21419;-57
2021/11/14 05:58:55;;;;;;;52.88;21.75;;;;;;;1.77;96.38;100764.73;1735680;81;21069;-57
2021/11/14 06:06:43;;;;;;;50.55;21.50;;;;;;;1.78;97.17;100777.30;1735813;81;21485;-57
2021/11/14 06:09:10;;;;;;;48.17;22.85;;;;;;;1.90;97.53;100774.82;1728203;81;21048;-56
2021/11/14 06:11:37;;;;;;;40.52;21.35;;;;;;;1.89;96.96;100783.04;1738895;81;21648;-57
2021/11/14 06:14:04;;;;;;;45.45;21.73;;;;;;;1.85;96.77;100778.68;1735791;80;21615;-57
2021/11/14 06:16:30;;;;;;;42.27;21.65;;;;;;;1.82;98.51;100784.25;1735606;81;21442;-57
2021/11/14 06:19:00;;;;;;;39.10;22.82;;;;;;;1.81;97.29;100785.98;1740642;81;21433;-56
2021/11/14 06:21:28;;;;;;;54.98;23.52;;;;;;;1.91;96.18;100784.36;1731531;81;21515;-57
2021/11/14 06:23:55;;;;;;;47.10;22.10;;;;;;;1.91;96.75;100782.63;1723234;81;21553;-56
2021/11/14 06:26:23;;;;;;;43.13;22.73;;;;;;;1.89;97.31;100781.74;1734159;80;21426;-56
2021/11/14 06:28:50;;;;;;;43.80;20.40;;;;;;;1.89;97.75;100775.69;1740683;81;21616;-57
2021/11/14 06:31:17;;;;;;;33.18;21.17;;;;;;;1.93;96.63;100784.81;1728780;81;20959;-56
2021/11/14 06:33:44;;;;;;;40.90;24.05;;;;;;;2.08;98.29;100786.70;1721191;81;21632;-57
2021/11/14 06:36:11;;;;;;;42.20;23.47;;;;;;;2.10;98.35;100784.12;1729464;81;21577;-55
2021/11/14 06:38:37;;;;;;;41.68;23.62;;;;;;;2.07;99.52;100787.56;1731233;81;22186;-52
2021/11/14 06:41:04;;;;;;;33.08;21.37;;;;;;;2.09;97.18;100790.15;1739782;81;21116;-51
2021/11/14 06:43:30;;;;;;;42.55;24.20;;;;;;;2.13;98.55;100787.62;1728375;81;21510;-51
2021/11/14 06:45:57;;;;;;;41.58;22.87;;;;;;;2.28;97.05;100783.00;1737274;81;21478;-52
2021/11/14 06:48:23;;;;;;;37.28;22.20;;;;;;;2.32;95.08;100783.47;1744221;80;21585;-53
2021/11/14 06:50:50;;;;;;;34.08;23.83;;;;;;;2.32;95.07;100789.09;1727263;81;21517;-52
2021/11/14 06:53:17;;;;;;;38.67;22.53;;;;;;;2.31;95.92;100789.94;1726352;80;21477;-59
2021/11/14 06:55:44;;;;;;;39.70;24.27;;;;;;;2.31;95.92;100789.94;1723566;81;22058;-56
2021/11/14 06:58:11;;;;;;;34.00;23.57;;;;;;;2.41;92.39;100783.99;1725222;81;21565;-54
2021/11/14 07:00:41;;;;;;;41.00;24.00;;;;;;;2.58;90.52;100788.03;1725337;80;21486;-55
2021/11/14 07:03:06;;;;;;;52.40;25.65;;;;;;;2.60;89.65;100783.72;1726882;81;21669;-55
2021/11/14 07:05:33;;;;;;;38.67;25.48;;;;;;;2.57;89.05;100788.88;1727692;81;21409;-54
2021/11/14 07:08:00;;;;;;;37.40;24.15;;;;;;;2.52;90.39;100789.25;1726380;81;21518;-55
2021/11/14 07:10:28;;;;;;;49.15;24.98;;;;;;;2.46;88.82;100794.41;1726714;81;21565;-55
2021/11/14 07:12:55;;;;;;;38.25;25.72;;;;;;;2.49;90.21;100789.25;1733089;81;21695;-54
2021/11/14 07:15:22;;;;;;;40.73;25.10;;;;;;;2.57;88.85;100788.88;1727594;81;21791;-54
2021/11/14 07:17:50;;;;;;;40.00;25.27;;;;;;;2.58;89.36;100793.63;1726734;81;21517;-55
2021/11/14 07:20:17;;;;;;;40.45;25.10;;;;;;;2.57;88.09;100787.58;1732099;81;21655;-55
2021/11/14 07:22:44;;;;;;;36.37;23.03;;;;;;;2.55;87.93;100789.29;1728507;81;21481;-54
2021/11/14 07:25:19;;;;;;;42.53;23.75;;;;;;;2.60;87.32;100789.31;1729263;81;21415;-55
2021/11/14 07:27:43;;;;;;;42.00;25.25;;;;;;;2.74;87.46;100799.39;1726568;81;21787;-55
2021/11/14 07:30:13;;;;;;;41.08;25.92;;;;;;;2.77;87.14;100802.43;1727574;81;22290;-53
2021/11/14 07:32:41;;;;;;;34.65;24.00;;;;;;;2.76;86.49;100803.30;1736733;81;21423;-53
2021/11/14 07:35:09;;;;;;;38.45;24.70;;;;;;;2.75;85.65;100793.36;1736580;80;21532;-53
2021/11/14 07:37:38;;;;;;;34.20;23.40;;;;;;;2.73;85.37;100797.23;1729550;81;21498;-52
2021/11/14 07:40:07;;;;;;;34.80;23.65;;;;;;;2.82;85.31;100794.25;1742015;81;22045;-52
2021/11/14 07:42:37;;;;;;;36.35;25.08;;;;;;;2.98;84.74;100792.20;1742779;81;21037;-53
2021/11/14 07:45:07;;;;;;;32.38;23.45;;;;;;;3.03;84.71;100789.22;1736810;81;21538;-52
2021/11/14 07:47:35;;;;;;;35.15;25.05;;;;;;;3.04;84.46;100788.78;1740975;81;21494;-52
2021/11/14 07:50:02;;;;;;;39.65;25.50;;;;;;;3.08;84.28;100786.20;1728656;81;21509;-53
2021/11/14 07:52:30;;;;;;;39.13;25.00;;;;;;;3.12;84.28;100781.45;1741609;80;21546;-54
2021/11/14 07:54:58;;;;;;;34.88;24.18;;;;;;;3.24;84.07;100781.97;1736790;80;21557;-53
2021/11/14 07:57:26;;;;;;;43.08;25.35;;;;;;;3.43;83.78;100780.77;1734219;81;25595;-53
2021/11/14 07:59:53;;;;;;;40.35;27.48;;;;;;;3.47;83.56;100780.78;1734191;81;21550;-53
2021/11/14 08:02:19;;;;;;;38.53;26.82;;;;;;;3.46;83.59;100777.72;1720816;81;21506;-54
2021/11/14 08:04:47;;;;;;;39.13;26.52;;;;;;;3.45;83.47;100787.70;1719960;82;21651;-55
2021/11/14 08:07:13;;;;;;;36.42;25.72;;;;;;;3.44;83.32;100781.19;1720357;80;21575;-54
2021/11/14 08:09:40;;;;;;;37.95;27.40;;;;;;;3.51;83.33;100782.96;1735838;80;21502;-55
2021/11/14 08:12:08;;;;;;;39.27;26.48;;;;;;;3.70;83.32;100782.59;1719367;81;21549;-55
2021/11/14 08:14:36;;;;;;;42.62;28.00;;;;;;;3.80;82.96;100786.95;1719189;81;21530;-55
2021/11/14 08:17:04;;;;;;;40.50;26.93;;;;;;;3.81;82.58;100790.01;1722591;82;22142;-55
2021/11/14 08:19:30;;;;;;;45.63;27.52;;;;;;;3.81;82.40;100789.14;1720029;81;21467;-55
2021/11/14 08:21:57;;;;;;;40.12;27.10;;;;;;;3.81;82.21;100783.50;1721361;82;21624;-55
2021/11/14 08:24:24;;;;;;;41.37;26.97;;;;;;;3.86;81.98;100780.48;1726464;82;21447;-57
2021/11/14 08:26:50;;;;;;;39.23;27.27;;;;;;;3.96;81.66;100774.88;1718395;81;21664;-54
2021/11/14 08:29:17;;;;;;;44.07;29.10;;;;;;;4.02;81.77;100776.62;1721968;82;21503;-54
2021/11/14 08:31:44;;;;;;;44.53;29.37;;;;;;;4.02;81.68;100772.72;1720157;81;21577;-54
2021/11/14 08:34:11;;;;;;;41.13;28.65;;;;;;;4.05;81.77;100772.70;1727304;81;21431;-54
2021/11/14 08:36:38;;;;;;;41.25;27.20;;;;;;;4.07;81.74;100774.46;1719938;82;20983;-54
2021/11/14 08:39:05;;;;;;;44.55;29.37;;;;;;;4.16;81.62;100768.83;1721524;82;21550;-55
2021/11/14 08:41:32;;;;;;;47.78;28.40;;;;;;;4.31;81.53;100767.53;1726235;81;22021;-54
2021/11/14 08:43:58;;;;;;;43.68;30.40;;;;;;;4.42;81.31;100761.04;1720042;81;21506;-54
2021/11/14 08:46:25;;;;;;;42.10;29.60;;;;;;;4.42;81.12;100763.64;1716442;82;21582;-54
2021/11/14 08:48:53;;;;;;;45.43;31.70;;;;;;;4.39;81.05;100764.93;1726656;81;21657;-54
2021/11/14 08:51:21;;;;;;;;;;;;;;;4.38;80.97;100760.61;1723253;81;21436;-55
2021/11/14 08:53:47;;;;;;;42.38;28.42;;;;;;;4.43;80.89;100754.53;1726796;81;22106;-55
2021/11/14 08:56:14;;;;;;;44.50;29.98;;;;;;;4.55;80.82;100752.35;1714778;82;21471;-55
2021/11/14 08:58:41;;;;;;;42.13;29.98;;;;;;;4.60;80.67;100749.77;1717796;82;21436;-55
2021/11/14 09:01:09;;;;;;;42.15;30.45;;;;;;;4.61;80.68;100744.52;1737178;80;21470;-56
2021/11/14 09:03:36;;;;;;;45.40;29.65;;;;;;;4.61;80.60;100752.78;1727721;81;21593;-54
2021/11/14 09:06:03;;;;;;;44.53;29.55;;;;;;;4.60;80.58;100744.11;1724723;81;21836;-55
2021/11/14 09:08:30;;;;;;;42.45;28.32;;;;;;;4.65;80.68;100746.28;1738389;81;21424;-55
2021/11/14 09:10:57;;;;;;;45.97;29.17;;;;;;;4.75;80.44;100740.62;1730362;81;21446;-55
2021/11/14 09:13:25;;;;;;;40.05;29.48;;;;;;;4.79;80.45;100738.88;1727772;81;21828;-55
2021/11/14 09:15:53;;;;;;;45.12;29.40;;;;;;;4.80;80.38;100738.00;1724864;81;21640;-55
2021/11/14 09:18:20;;;;;;;43.02;30.05;;;;;;;4.78;80.52;100739.73;1732308;81;21452;-55
2021/11/14 09:20:47;;;;;;;45.58;30.02;;;;;;;4.79;80.52;100741.48;1748424;80;21588;-54
2021/11/14 09:23:15;;;;;;;43.95;30.20;;;;;;;4.85;80.49;100738.42;1739068;79;21544;-54
2021/11/14 09:25:42;;;;;;;44.20;30.05;;;;;;;4.96;80.42;100738.41;1728223;81;21523;-54
2021/11/14 09:28:10;;;;;;;42.85;30.77;;;;;;;4.97;80.34;100733.64;1744741;80;21511;-55
2021/11/14 09:30:36;;;;;;;;;;;;;;;4.91;80.29;100732.77;1725204;81;21823;-55
2021/11/14 09:33:04;;;;;;;40.75;30.15;;;;;;;4.88;80.51;100733.66;1739105;80;20458;-56
2021/11/14 09:35:32;;;;;;;46.13;29.18;;;;;;;4.84;80.53;100738.00;1746663;80;21524;-56
2021/11/14 09:37:59;;;;;;;42.55;29.57;;;;;;;4.88;80.42;100736.27;1743269;80;21488;-56
2021/11/14 09:40:25;;;;;;;37.73;28.40;;;;;;;5.01;80.34;100737.08;1740840;78;21648;-56
2021/11/14 09:42:52;;;;;;;44.33;30.50;;;;;;;5.03;79.97;100732.76;1738977;81;21474;-56
2021/11/14 09:45:19;;;;;;;46.55;31.82;;;;;;;4.99;80.09;100741.02;1736048;81;21533;-57
2021/11/14 09:47:47;;;;;;;43.38;30.68;;;;;;;4.97;80.08;100740.16;1731255;81;21466;-56
2021/11/14 09:50:14;;;;;;;45.23;31.93;;;;;;;4.99;80.00;100732.31;1734580;81;21434;-56
2021/11/14 09:52:41;;;;;;;48.35;31.17;;;;;;;4.99;79.88;100725.37;1740531;81;21418;-57
2021/11/14 09:55:09;;;;;;;48.03;34.53;;;;;;;5.09;79.91;100717.09;1725542;81;21482;-56
2021/11/14 09:57:39;;;;;;;47.40;33.50;;;;;;;5.16;79.80;100702.28;1738857;80;21463;-57
2021/11/14 10:00:08;;;;;;;48.52;33.45;;;;;;;5.11;80.05;100702.75;1732518;80;21045;-56
2021/11/14 10:02:41;;;;;;;46.88;32.58;;;;;;;5.08;80.30;100703.61;1730227;82;21513;-56
2021/11/14 10:05:11;;;;;;;48.80;32.63;;;;;;;5.08;80.16;100708.83;1718223;80;21527;-56
2021/11/14 10:07:41;;;;;;;49.73;32.40;;;;;;;5.13;80.27;100704.91;1720672;81;21779;-56
2021/11/14 10:10:09;;;;;;;49.67;33.15;;;;;;;5.23;80.14;100707.91;1719136;82;21002;-58
2021/11/14 10:12:36;;;;;;;44.67;32.90;;;;;;;5.29;80.00;100704.41;1712583;82;21475;-56
2021/11/14 10:15:14;;;;;;;55.20;36.28;;;;;;;5.26;80.01;100703.55;1725921;80;21593;-60
2021/11/14 10:17:45;;;;;;;49.55;34.95;;;;;;;5.27;80.06;100701.80;1725204;82;21573;-56
2021/11/14 10:20:30;;;;;;;53.52;34.83;;;;;;;5.25;80.20;100698.33;1719966;80;21577;-56
2021/11/14 10:23:19;;;;;;;47.80;34.38;;;;;;;5.33;80.53;100698.30;1727411;80;21483;-53
2021/11/14 10:25:49;;;;;;;49.40;33.92;;;;;;;5.43;80.18;100695.64;1671432;80;21483;-55
2021/11/14 10:28:16;;;;;;;51.18;34.83;;;;;;;5.52;79.96;100699.08;1719407;80;21503;-55
2021/11/14 10:30:45;;;;;;;52.78;35.92;;;;;;;5.53;79.83;100700.82;1723057;80;21561;-56
2021/11/14 10:33:16;;;;;;;48.70;34.75;;;;;;;5.54;79.98;100698.63;1721403;82;21795;-57
2021/11/14 10:35:44;;;;;;;46.13;33.58;;;;;;;5.57;79.83;100696.87;1698751;82;21427;-59
2021/11/14 10:38:15;;;;;;;46.25;32.88;;;;;;;5.63;79.90;100697.27;1729683;81;21561;-56
2021/11/14 10:40:52;;;;;;;48.23;33.65;;;;;;;5.83;79.86;100691.94;1727746;81;21453;-56
2021/11/14 10:43:22;;;;;;;53.73;34.20;;;;;;;5.93;79.53;100695.35;1726612;81;21593;-56
2021/11/14 10:45:51;;;;;;;51.10;35.30;;;;;;;5.92;79.49;100691.88;1712910;81;21632;-56
2021/11/14 10:48:19;;;;;;;;;;;;;;;5.91;79.36;100690.58;1732158;80;21545;-56
2021/11/14 10:50:49;;;;;;;50.78;34.13;;;;;;;5.92;79.37;100698.41;1720902;82;20439;-56
2021/11/14 10:53:19;;;;;;;47.25;33.20;;;;;;;5.92;79.34;100684.50;1729876;81;21662;-56
2021/11/14 10:55:54;;;;;;;47.33;32.73;;;;;;;6.00;79.28;100682.72;1708446;82;21503;-56
2021/11/14 10:58:24;;;;;;;47.78;34.78;;;;;;;6.18;79.13;100677.81;1721337;82;21813;-55
2021/11/14 11:00:55;;;;;;;45.33;35.65;;;;;;;6.27;79.02;100680.77;1722787;81;20939;-55
2021/11/14 11:03:22;;;;;;;50.38;36.50;;;;;;;6.27;79.06;100679.45;1729214;80;21426;-56
2021/11/14 11:05:49;;;;;;;48.20;36.03;;;;;;;6.28;78.76;100680.75;1729653;80;21483;-55
2021/11/14 11:08:21;;;;;;;47.53;34.95;;;;;;;6.27;78.58;100680.77;1725884;81;22173;-55
2021/11/14 11:10:52;;;;;;;46.73;35.28;;;;;;;6.30;78.34;100684.22;1727137;80;21805;-56
2021/11/14 11:13:38;;;;;;;45.75;33.78;;;;;;;6.44;78.27;100688.00;1727577;80;21681;-56
2021/11/14 11:16:21;;;;;;;51.80;35.20;;;;;;;6.49;78.06;100679.69;1723475;80;21525;-55
2021/11/14 11:19:10;;;;;;;51.15;36.30;;;;;;;6.50;77.89;100677.52;1727544;81;21014;-56
2021/11/14 11:21:42;;;;;;;54.13;36.20;;;;;;;6.50;77.81;100676.63;1719909;81;21560;-56
2021/11/14 11:24:14;;;;;;;47.73;33.65;;;;;;;6.49;77.77;100666.63;1736390;81;21763;-55
2021/11/14 11:26:59;;;;;;;52.15;34.48;;;;;;;6.57;77.77;100677.89;1733105;80;21065;-56
2021/11/14 11:29:27;;;;;;;51.98;36.05;;;;;;;6.74;77.59;100674.22;1733786;81;21554;-55